createdAt,value
2017-08-05T00:00:23.349Z,1004.4
2017-08-05T00:01:26.512Z,1004.5
2017-08-05T00:02:29.349Z,1004.4
2017-08-05T00:03:32.174Z,1004.4
2017-08-05T00:04:34.661Z,1004.3
2017-08-05T00:05:37.148Z,1004.3
2017-08-05T00:06:39.641Z,1004.3
2017-08-05T00:07:42.474Z,1004.4
2017-08-05T00:08:44.976Z,1004.4
2017-08-05T00:09:47.462Z,1004.4
2017-08-05T00:10:49.945Z,1004.5
2017-08-05T00:11:52.441Z,1004.4
2017-08-05T00:12:55.267Z,1004.5
2017-08-05T00:13:58.105Z,1004.5
2017-08-05T00:15:00.922Z,1004.4
2017-08-05T00:16:04.119Z,1004.4
2017-08-05T00:17:06.604Z,1004.5
2017-08-05T00:18:09.096Z,1004.4
2017-08-05T00:19:11.597Z,1004.4
2017-08-05T00:20:14.087Z,1004.4
2017-08-05T00:21:16.570Z,1004.5
2017-08-05T00:22:19.048Z,1004.4
2017-08-05T00:23:21.907Z,1004.4
2017-08-05T00:24:24.393Z,1004.4
2017-08-05T00:25:26.900Z,1004.4
2017-08-05T00:26:29.386Z,1004.5
2017-08-05T00:27:32.211Z,1004.5
2017-08-05T00:28:34.700Z,1004.5
2017-08-05T00:29:37.558Z,1004.5
2017-08-05T00:30:40.755Z,1004.6
2017-08-05T00:31:43.241Z,1004.5
2017-08-05T00:32:45.755Z,1004.6
2017-08-05T00:33:48.576Z,1004.5
2017-08-05T00:34:51.072Z,1004.5
2017-08-05T00:35:53.549Z,1004.5
2017-08-05T00:36:56.048Z,1004.5
2017-08-05T00:37:58.535Z,1004.5
2017-08-05T00:39:01.011Z,1004.6
2017-08-05T00:40:03.842Z,1004.6
2017-08-05T00:41:06.676Z,1004.6
2017-08-05T00:42:09.511Z,1004.6
2017-08-05T00:43:12.345Z,1004.7
2017-08-05T00:44:14.819Z,1004.7
2017-08-05T00:45:17.645Z,1004.7
2017-08-05T00:46:20.141Z,1004.8
2017-08-05T00:47:22.631Z,1004.7
2017-08-05T00:48:25.132Z,1004.8
2017-08-05T00:49:27.626Z,1004.7
2017-08-05T00:50:30.461Z,1004.7
2017-08-05T00:51:33.289Z,1004.7
2017-08-05T00:52:35.793Z,1004.7
2017-08-05T00:53:38.589Z,1004.6
2017-08-05T00:54:41.106Z,1004.7
2017-08-05T00:55:43.575Z,1004.6
2017-08-05T00:56:46.073Z,1004.7
2017-08-05T00:57:48.907Z,1004.7
2017-08-05T00:58:51.382Z,1004.6
2017-08-05T00:59:54.208Z,1004.6
2017-08-05T01:00:57.044Z,1004.6
2017-08-05T01:01:59.526Z,1004.6
2017-08-05T01:03:02.013Z,1004.6
2017-08-05T01:04:05.218Z,1004.5
2017-08-05T01:05:07.711Z,1004.5
2017-08-05T01:06:10.193Z,1004.5
2017-08-05T01:07:12.683Z,1004.6
2017-08-05T01:08:15.859Z,1004.6
2017-08-05T01:09:18.335Z,1004.7
2017-08-05T01:10:20.817Z,1004.7
2017-08-05T01:11:23.301Z,1004.7
2017-08-05T01:12:26.446Z,1004.7
2017-08-05T01:13:29.966Z,1004.8
2017-08-05T01:14:32.452Z,1004.7
2017-08-05T01:15:34.934Z,1004.7
2017-08-05T01:16:37.428Z,1004.7
2017-08-05T01:17:39.919Z,1004.7
2017-08-05T01:18:42.745Z,1004.6
2017-08-05T01:19:45.241Z,1004.6
2017-08-05T01:20:48.102Z,1004.5
2017-08-05T01:21:50.581Z,1004.5
2017-08-05T01:22:53.071Z,1004.5
2017-08-05T01:23:55.549Z,1004.5
2017-08-05T01:24:58.393Z,1004.5
2017-08-05T01:26:01.243Z,1004.5
2017-08-05T01:27:04.754Z,1004.5
2017-08-05T01:28:07.238Z,1004.5
2017-08-05T01:29:09.743Z,1004.5
2017-08-05T01:30:12.222Z,1004.5
2017-08-05T01:31:14.719Z,1004.4
2017-08-05T01:32:17.546Z,1004.5
2017-08-05T01:33:20.390Z,1004.4
2017-08-05T01:34:23.213Z,1004.5
2017-08-05T01:35:25.701Z,1004.4
2017-08-05T01:36:28.200Z,1004.5
2017-08-05T01:37:30.690Z,1004.4
2017-08-05T01:38:33.175Z,1004.4
2017-08-05T01:39:35.662Z,1004.4
2017-08-05T01:40:38.501Z,1004.5
2017-08-05T01:41:40.978Z,1004.5
2017-08-05T01:42:43.481Z,1004.5
2017-08-05T01:43:45.945Z,1004.6
2017-08-05T01:44:49.452Z,1004.6
2017-08-05T01:45:51.946Z,1004.6
2017-08-05T01:46:54.781Z,1004.5
2017-08-05T01:47:57.262Z,1004.5
2017-08-05T01:48:59.894Z,1004.5
2017-08-05T01:50:03.049Z,1004.5
2017-08-05T01:51:05.558Z,1004.5
2017-08-05T01:52:08.051Z,1004.5
2017-08-05T01:53:10.899Z,1004.5
2017-08-05T01:54:13.769Z,1004.6
2017-08-05T01:55:16.274Z,1004.6
2017-08-05T01:56:18.748Z,1004.6
2017-08-05T01:57:21.602Z,1004.6
2017-08-05T01:58:24.421Z,1004.5
2017-08-05T01:59:26.920Z,1004.5
2017-08-05T02:00:29.772Z,1004.4
2017-08-05T02:01:32.273Z,1004.5
2017-08-05T02:02:35.086Z,1004.5
2017-08-05T02:03:38.251Z,1004.4
2017-08-05T02:04:41.078Z,1004.5
2017-08-05T02:05:43.563Z,1004.6
2017-08-05T02:06:46.393Z,1004.6
2017-08-05T02:07:49.248Z,1004.6
2017-08-05T02:08:52.392Z,1004.6
2017-08-05T02:09:54.913Z,1004.7
2017-08-05T02:10:57.393Z,1004.6
2017-08-05T02:11:59.887Z,1004.6
2017-08-05T02:13:02.373Z,1004.6
2017-08-05T02:14:05.217Z,1004.6
2017-08-05T02:15:07.687Z,1004.6
2017-08-05T02:16:10.184Z,1004.6
2017-08-05T02:17:12.665Z,1004.6
2017-08-05T02:18:15.163Z,1004.5
2017-08-05T02:19:17.657Z,1004.6
2017-08-05T02:20:20.165Z,1004.6
2017-08-05T02:21:22.661Z,1004.7
2017-08-05T02:22:25.173Z,1004.7
2017-08-05T02:23:27.648Z,1004.7
2017-08-05T02:24:30.145Z,1004.7
2017-08-05T02:25:32.966Z,1004.7
2017-08-05T02:26:35.447Z,1004.6
2017-08-05T02:27:37.937Z,1004.6
2017-08-05T02:28:40.767Z,1004.6
2017-08-05T02:29:43.255Z,1004.6
2017-08-05T02:30:46.099Z,1004.6
2017-08-05T02:31:49.291Z,1004.7
2017-08-05T02:32:51.786Z,1004.7
2017-08-05T02:33:54.284Z,1004.7
2017-08-05T02:34:57.121Z,1004.7
2017-08-05T02:35:59.944Z,1004.7
2017-08-05T02:37:02.439Z,1004.7
2017-08-05T02:38:05.607Z,1004.8
2017-08-05T02:39:08.100Z,1004.7
2017-08-05T02:40:10.936Z,1004.7
2017-08-05T02:41:13.800Z,1004.7
2017-08-05T02:42:16.633Z,1004.7
2017-08-05T02:43:19.789Z,1004.6
2017-08-05T02:44:22.306Z,1004.6
2017-08-05T02:45:24.791Z,1004.6
2017-08-05T02:46:28.319Z,1004.6
2017-08-05T02:47:31.157Z,1004.6
2017-08-05T02:48:33.974Z,1004.6
2017-08-05T02:49:36.478Z,1004.6
2017-08-05T02:50:39.326Z,1004.7
2017-08-05T02:51:42.141Z,1004.7
2017-08-05T02:52:44.989Z,1004.6
2017-08-05T02:53:47.481Z,1004.7
2017-08-05T02:54:50.316Z,1004.7
2017-08-05T02:55:53.502Z,1004.7
2017-08-05T02:56:56.332Z,1004.7
2017-08-05T02:57:58.821Z,1004.7
2017-08-05T02:59:01.980Z,1004.6
2017-08-05T03:00:04.821Z,1004.6
2017-08-05T03:01:07.290Z,1004.6
2017-08-05T03:02:10.473Z,1004.6
2017-08-05T03:03:13.313Z,1004.6
2017-08-05T03:04:16.139Z,1004.7
2017-08-05T03:05:18.993Z,1004.7
2017-08-05T03:06:21.480Z,1004.7
2017-08-05T03:07:23.940Z,1004.7
2017-08-05T03:08:26.464Z,1004.7
2017-08-05T03:09:28.969Z,1004.7
2017-08-05T03:10:31.805Z,1004.7
2017-08-05T03:11:34.636Z,1004.7
2017-08-05T03:12:37.467Z,1004.7
2017-08-05T03:13:40.278Z,1004.7
2017-08-05T03:14:42.789Z,1004.7
2017-08-05T03:15:45.943Z,1004.7
2017-08-05T03:16:48.444Z,1004.6
2017-08-05T03:17:50.932Z,1004.6
2017-08-05T03:18:53.431Z,1004.6
2017-08-05T03:19:55.925Z,1004.6
2017-08-05T03:20:58.419Z,1004.6
2017-08-05T03:22:00.987Z,1004.6
2017-08-05T03:23:04.450Z,1004.6
2017-08-05T03:24:06.926Z,1004.7
2017-08-05T03:25:09.773Z,1004.7
2017-08-05T03:26:12.946Z,1004.7
2017-08-05T03:27:16.112Z,1004.8
2017-08-05T03:28:18.934Z,1004.8
2017-08-05T03:29:21.786Z,1004.8
2017-08-05T03:30:24.258Z,1004.8
2017-08-05T03:31:26.770Z,1004.8
2017-08-05T03:32:29.263Z,1004.9
2017-08-05T03:33:32.151Z,1004.8
2017-08-05T03:34:34.969Z,1004.8
2017-08-05T03:35:37.465Z,1004.8
2017-08-05T03:36:40.293Z,1004.8
2017-08-05T03:37:42.797Z,1004.8
2017-08-05T03:38:45.288Z,1004.8
2017-08-05T03:39:47.772Z,1004.8
2017-08-05T03:40:50.591Z,1004.7
2017-08-05T03:41:53.079Z,1004.8
2017-08-05T03:42:55.583Z,1004.8
2017-08-05T03:43:58.056Z,1004.8
2017-08-05T03:45:00.552Z,1004.8
2017-08-05T03:46:03.735Z,1004.8
2017-08-05T03:47:06.228Z,1004.8
2017-08-05T03:48:08.719Z,1004.8
2017-08-05T03:49:11.540Z,1004.8
2017-08-05T03:50:14.368Z,1004.8
2017-08-05T03:51:17.223Z,1004.8
2017-08-05T03:52:20.383Z,1004.8
2017-08-05T03:53:23.220Z,1004.8
2017-08-05T03:54:25.703Z,1004.8
2017-08-05T03:55:28.520Z,1004.8
2017-08-05T03:56:31.340Z,1004.9
2017-08-05T03:57:33.859Z,1004.9
2017-08-05T03:58:36.689Z,1004.9
2017-08-05T03:59:39.192Z,1004.9
2017-08-05T04:00:41.674Z,1004.8
2017-08-05T04:01:44.521Z,1004.8
2017-08-05T04:02:47.005Z,1004.7
2017-08-05T04:03:49.823Z,1004.7
2017-08-05T04:04:52.319Z,1004.7
2017-08-05T04:05:55.158Z,1004.8
2017-08-05T04:06:57.975Z,1004.8
2017-08-05T04:08:01.167Z,1004.9
2017-08-05T04:09:04.327Z,1005
2017-08-05T04:10:06.815Z,1004.9
2017-08-05T04:11:09.308Z,1004.9
2017-08-05T04:12:12.133Z,1004.9
2017-08-05T04:13:14.982Z,1004.8
2017-08-05T04:14:17.813Z,1004.8
2017-08-05T04:15:20.642Z,1004.7
2017-08-05T04:16:23.135Z,1004.7
2017-08-05T04:17:25.614Z,1004.7
2017-08-05T04:18:28.095Z,1004.7
2017-08-05T04:19:30.598Z,1004.8
2017-08-05T04:20:33.409Z,1004.8
2017-08-05T04:21:35.912Z,1004.9
2017-08-05T04:22:38.399Z,1005
2017-08-05T04:23:40.883Z,1005
2017-08-05T04:24:43.378Z,1005
2017-08-05T04:25:46.562Z,1005
2017-08-05T04:26:49.379Z,1005
2017-08-05T04:27:52.212Z,1005.1
2017-08-05T04:28:54.702Z,1005.1
2017-08-05T04:29:57.203Z,1005.2
2017-08-05T04:30:59.681Z,1005.2
2017-08-05T04:32:02.515Z,1005.2
2017-08-05T04:33:05.031Z,1005.2
2017-08-05T04:34:07.524Z,1005.2
2017-08-05T04:35:10.016Z,1005.1
2017-08-05T04:36:12.500Z,1005.1
2017-08-05T04:37:15.325Z,1005.1
2017-08-05T04:38:17.824Z,1005.1
2017-08-05T04:39:20.676Z,1005
2017-08-05T04:40:23.484Z,1005
2017-08-05T04:41:25.981Z,1004.9
2017-08-05T04:42:28.480Z,1004.9
2017-08-05T04:43:30.973Z,1005
2017-08-05T04:44:33.483Z,1005
2017-08-05T04:45:35.955Z,1005
2017-08-05T04:46:38.792Z,1005
2017-08-05T04:47:41.635Z,1005.1
2017-08-05T04:48:44.141Z,1005.1
2017-08-05T04:49:46.612Z,1005.1
2017-08-05T04:50:50.671Z,1005.1
2017-08-05T04:51:53.519Z,1005
2017-08-05T04:52:56.039Z,1005
2017-08-05T04:53:58.557Z,1005
2017-08-05T04:55:02.041Z,1004.9
2017-08-05T04:56:04.548Z,1004.9
2017-08-05T04:57:07.379Z,1004.9
2017-08-05T04:58:10.684Z,1004.9
2017-08-05T04:59:13.180Z,1005
2017-08-05T05:00:15.680Z,1005
2017-08-05T05:01:19.169Z,1005
2017-08-05T05:02:21.652Z,1005
2017-08-05T05:03:24.500Z,1005
2017-08-05T05:04:27.323Z,1005
2017-08-05T05:05:29.813Z,1005
2017-08-05T05:06:32.982Z,1005
2017-08-05T05:07:35.559Z,1005
2017-08-05T05:08:38.382Z,1005
2017-08-05T05:09:40.949Z,1004.9
2017-08-05T05:10:43.785Z,1004.9
2017-08-05T05:11:46.287Z,1005
2017-08-05T05:12:48.781Z,1004.9
2017-08-05T05:13:51.271Z,1004.9
2017-08-05T05:14:54.119Z,1004.9
2017-08-05T05:15:57.021Z,1005
2017-08-05T05:16:59.522Z,1005
2017-08-05T05:18:02.030Z,1005
2017-08-05T05:19:04.882Z,1005.1
2017-08-05T05:20:07.727Z,1005.2
2017-08-05T05:21:10.242Z,1005.2
2017-08-05T05:22:12.728Z,1005.2
2017-08-05T05:23:15.576Z,1005.3
2017-08-05T05:24:18.081Z,1005.3
2017-08-05T05:25:20.578Z,1005.3
2017-08-05T05:26:23.075Z,1005.3
2017-08-05T05:27:25.569Z,1005.3
2017-08-05T05:28:28.393Z,1005.3
2017-08-05T05:29:30.889Z,1005.3
2017-08-05T05:30:33.729Z,1005.2
2017-08-05T05:31:36.237Z,1005.2
2017-08-05T05:32:38.718Z,1005.2
2017-08-05T05:33:41.221Z,1005.2
2017-08-05T05:34:43.706Z,1005.2
2017-08-05T05:35:46.541Z,1005.2
2017-08-05T05:36:49.036Z,1005.2
2017-08-05T05:37:52.311Z,1005.2
2017-08-05T05:38:54.831Z,1005.2
2017-08-05T05:39:57.346Z,1005.2
2017-08-05T05:41:00.279Z,1005.1
2017-08-05T05:42:03.502Z,1005.2
2017-08-05T05:43:06.350Z,1005.1
2017-08-05T05:44:08.828Z,1005.2
2017-08-05T05:45:11.329Z,1005.2
2017-08-05T05:46:14.530Z,1005.3
2017-08-05T05:47:17.008Z,1005.3
2017-08-05T05:48:19.528Z,1005.4
2017-08-05T05:49:21.980Z,1005.3
2017-08-05T05:50:24.792Z,1005.4
2017-08-05T05:51:27.248Z,1005.5
2017-08-05T05:52:30.041Z,1005.5
2017-08-05T05:53:32.705Z,1005.5
2017-08-05T05:54:35.313Z,1005.5
2017-08-05T05:55:38.100Z,1005.5
2017-08-05T05:56:40.909Z,1005.5
2017-08-05T05:57:43.707Z,1005.4
2017-08-05T05:58:46.521Z,1005.4
2017-08-05T05:59:49.318Z,1005.3
2017-08-05T06:00:51.809Z,1005.4
2017-08-05T06:01:54.267Z,1005.3
2017-08-05T06:02:57.067Z,1005.4
2017-08-05T06:03:59.540Z,1005.3
2017-08-05T06:05:01.994Z,1005.4
2017-08-05T06:06:05.125Z,1005.4
2017-08-05T06:07:07.589Z,1005.4
2017-08-05T06:08:10.047Z,1005.4
2017-08-05T06:09:12.833Z,1005.5
2017-08-05T06:10:15.644Z,1005.5
2017-08-05T06:11:18.114Z,1005.5
2017-08-05T06:12:20.935Z,1005.5
2017-08-05T06:13:23.394Z,1005.5
2017-08-05T06:14:26.525Z,1005.5
2017-08-05T06:15:29.724Z,1005.4
2017-08-05T06:16:32.194Z,1005.4
2017-08-05T06:17:34.671Z,1005.4
2017-08-05T06:18:37.136Z,1005.4
2017-08-05T06:19:39.943Z,1005.3
2017-08-05T06:20:42.391Z,1005.3
2017-08-05T06:21:44.857Z,1005.3
2017-08-05T06:22:47.320Z,1005.3
2017-08-05T06:23:49.780Z,1005.3
2017-08-05T06:24:52.239Z,1005.3
2017-08-05T06:25:55.046Z,1005.3
2017-08-05T06:26:57.489Z,1005.4
2017-08-05T06:28:00.297Z,1005.5
2017-08-05T06:29:03.770Z,1005.5
2017-08-05T06:30:06.227Z,1005.5
2017-08-05T06:31:09.370Z,1005.4
2017-08-05T06:32:12.170Z,1005.5
2017-08-05T06:33:14.624Z,1005.5
2017-08-05T06:34:17.439Z,1005.4
2017-08-05T06:35:20.227Z,1005.5
2017-08-05T06:36:22.686Z,1005.5
2017-08-05T06:37:25.137Z,1005.4
2017-08-05T06:38:27.595Z,1005.4
2017-08-05T06:39:30.416Z,1005.3
2017-08-05T06:40:32.893Z,1005.3
2017-08-05T06:41:35.676Z,1005.3
2017-08-05T06:42:38.152Z,1005.5
2017-08-05T06:43:40.605Z,1005.5
2017-08-05T06:44:43.070Z,1005.5
2017-08-05T06:45:45.531Z,1005.5
2017-08-05T06:46:48.660Z,1005.5
2017-08-05T06:47:51.117Z,1005.6
2017-08-05T06:48:53.575Z,1005.6
2017-08-05T06:49:56.026Z,1005.5
2017-08-05T06:50:58.478Z,1005.5
2017-08-05T06:52:00.915Z,1005.5
2017-08-05T06:53:04.064Z,1005.5
2017-08-05T06:54:06.534Z,1005.5
2017-08-05T06:55:08.983Z,1005.5
2017-08-05T06:56:11.445Z,1005.5
2017-08-05T06:57:13.915Z,1005.5
2017-08-05T06:58:16.728Z,1005.5
2017-08-05T06:59:19.518Z,1005.4
2017-08-05T07:00:22.317Z,1005.5
2017-08-05T07:01:25.118Z,1005.3
2017-08-05T07:02:27.579Z,1005.3
2017-08-05T07:03:30.031Z,1005.2
2017-08-05T07:04:32.509Z,1005.2
2017-08-05T07:05:35.664Z,1005.3
2017-08-05T07:06:38.454Z,1005.4
2017-08-05T07:07:40.919Z,1005.5
2017-08-05T07:08:43.398Z,1005.5
2017-08-05T07:09:45.868Z,1005.5
2017-08-05T07:10:48.667Z,1005.5
2017-08-05T07:11:51.127Z,1005.5
2017-08-05T07:12:53.592Z,1005.5
2017-08-05T07:13:56.041Z,1005.6
2017-08-05T07:14:58.491Z,1005.6
2017-08-05T07:16:00.939Z,1005.5
2017-08-05T07:17:04.056Z,1005.5
2017-08-05T07:18:06.885Z,1005.3
2017-08-05T07:19:09.682Z,1005.4
2017-08-05T07:20:12.126Z,1005.3
2017-08-05T07:21:14.599Z,1005.4
2017-08-05T07:22:17.055Z,1005.4
2017-08-05T07:23:19.523Z,1005.3
2017-08-05T07:24:22.316Z,1005.3
2017-08-05T07:25:25.096Z,1005.3
2017-08-05T07:26:27.553Z,1005.3
2017-08-05T07:27:30.017Z,1005.3
2017-08-05T07:28:32.471Z,1005.3
2017-08-05T07:29:34.946Z,1005.3
2017-08-05T07:30:37.389Z,1005.2
2017-08-05T07:31:39.863Z,1005.2
2017-08-05T07:32:42.666Z,1005.1
2017-08-05T07:33:45.139Z,1005.1
2017-08-05T07:34:47.955Z,1005.1
2017-08-05T07:35:50.419Z,1005.2
2017-08-05T07:36:53.215Z,1005.1
2017-08-05T07:37:56.013Z,1005.2
2017-08-05T07:38:58.465Z,1005.3
2017-08-05T07:40:00.940Z,1005.3
2017-08-05T07:41:03.732Z,1005.4
2017-08-05T07:42:06.510Z,1005.3
2017-08-05T07:43:08.985Z,1005.3
2017-08-05T07:44:11.432Z,1005.3
2017-08-05T07:45:14.230Z,1005.3
2017-08-05T07:46:17.033Z,1005.3
2017-08-05T07:47:19.494Z,1005.3
2017-08-05T07:48:21.943Z,1005.4
2017-08-05T07:49:24.747Z,1005.3
2017-08-05T07:50:27.201Z,1005.3
2017-08-05T07:51:30.010Z,1005.2
2017-08-05T07:52:32.459Z,1005.3
2017-08-05T07:53:34.918Z,1005.3
2017-08-05T07:54:37.732Z,1005.3
2017-08-05T07:55:40.187Z,1005.3
2017-08-05T07:56:42.633Z,1005.3
2017-08-05T07:57:45.092Z,1005.3
2017-08-05T07:58:47.561Z,1005.3
2017-08-05T07:59:50.012Z,1005.3
2017-08-05T08:00:53.486Z,1005.3
2017-08-05T08:01:55.954Z,1005.3
2017-08-05T08:02:58.418Z,1005.2
2017-08-05T08:04:00.868Z,1005.2
2017-08-05T08:05:03.709Z,1005.2
2017-08-05T08:06:06.165Z,1005.2
2017-08-05T08:07:08.626Z,1005.3
2017-08-05T08:08:11.087Z,1005.3
2017-08-05T08:09:13.549Z,1005.3
2017-08-05T08:10:16.027Z,1005.3
2017-08-05T08:11:18.827Z,1005.2
2017-08-05T08:12:21.962Z,1005.1
2017-08-05T08:13:24.428Z,1005.1
2017-08-05T08:14:27.224Z,1005.1
2017-08-05T08:15:29.676Z,1005.2
2017-08-05T08:16:32.138Z,1005.2
2017-08-05T08:17:34.621Z,1005.2
2017-08-05T08:18:37.403Z,1005.2
2017-08-05T08:19:40.201Z,1005.3
2017-08-05T08:20:42.654Z,1005.3
2017-08-05T08:21:45.458Z,1005.3
2017-08-05T08:22:47.919Z,1005.2
2017-08-05T08:23:50.722Z,1005.1
2017-08-05T08:24:53.537Z,1005.2
2017-08-05T08:25:56.343Z,1005.3
2017-08-05T08:26:59.144Z,1005.4
2017-08-05T08:28:01.595Z,1005.5
2017-08-05T08:29:04.054Z,1005.3
2017-08-05T08:30:06.523Z,1005.4
2017-08-05T08:31:09.328Z,1005.3
2017-08-05T08:32:11.780Z,1005.3
2017-08-05T08:33:14.266Z,1005.3
2017-08-05T08:34:16.728Z,1005.4
2017-08-05T08:35:19.185Z,1005.5
2017-08-05T08:36:21.642Z,1005.4
2017-08-05T08:37:24.092Z,1005.3
2017-08-05T08:38:26.552Z,1005.4
2017-08-05T08:39:29.353Z,1005.5
2017-08-05T08:40:31.801Z,1005.4
2017-08-05T08:41:34.302Z,1005.3
2017-08-05T08:42:36.760Z,1005.3
2017-08-05T08:43:39.209Z,1005.2
2017-08-05T08:44:41.667Z,1005.3
2017-08-05T08:45:44.136Z,1005.3
2017-08-05T08:46:46.600Z,1005.3
2017-08-05T08:47:49.057Z,1005.3
2017-08-05T08:48:51.850Z,1005.3
2017-08-05T08:49:54.318Z,1005.3
2017-08-05T08:50:57.126Z,1005.2
2017-08-05T08:51:59.578Z,1005.2
2017-08-05T08:53:02.032Z,1005.2
2017-08-05T08:54:05.858Z,1005.2
2017-08-05T08:55:08.320Z,1005.2
2017-08-05T08:56:10.772Z,1005.2
2017-08-05T08:57:13.900Z,1005.1
2017-08-05T08:58:16.371Z,1005.1
2017-08-05T08:59:19.167Z,1005.2
2017-08-05T09:00:21.618Z,1005.2
2017-08-05T09:01:24.445Z,1005.2
2017-08-05T09:02:26.909Z,1005.1
2017-08-05T09:03:29.388Z,1005.1
2017-08-05T09:04:32.189Z,1005.2
2017-08-05T09:05:34.647Z,1005.1
2017-08-05T09:06:37.108Z,1005.1
2017-08-05T09:07:39.940Z,1005
2017-08-05T09:08:42.755Z,1005
2017-08-05T09:09:45.220Z,1005
2017-08-05T09:10:47.676Z,1005
2017-08-05T09:11:50.125Z,1005
2017-08-05T09:12:52.610Z,1005
2017-08-05T09:13:55.065Z,1005.1
2017-08-05T09:14:57.511Z,1005.1
2017-08-05T09:15:59.968Z,1005.1
2017-08-05T09:17:02.796Z,1005.1
2017-08-05T09:18:05.262Z,1005.2
2017-08-05T09:19:08.736Z,1005.2
2017-08-05T09:20:11.524Z,1005.3
2017-08-05T09:21:14.325Z,1005.3
2017-08-05T09:22:17.147Z,1005.3
2017-08-05T09:23:19.609Z,1005.3
2017-08-05T09:24:22.060Z,1005.2
2017-08-05T09:25:24.863Z,1005.2
2017-08-05T09:26:27.659Z,1005.2
2017-08-05T09:27:30.130Z,1005.2
2017-08-05T09:28:32.923Z,1005.3
2017-08-05T09:29:35.753Z,1005.3
2017-08-05T09:30:38.220Z,1005.3
2017-08-05T09:31:41.001Z,1005.3
2017-08-05T09:32:43.487Z,1005.3
2017-08-05T09:33:45.941Z,1005.4
2017-08-05T09:34:48.398Z,1005.5
2017-08-05T09:35:50.854Z,1005.4
2017-08-05T09:36:53.306Z,1005.4
2017-08-05T09:37:55.771Z,1005.3
2017-08-05T09:38:58.585Z,1005.3
2017-08-05T09:40:01.383Z,1005.3
2017-08-05T09:41:04.516Z,1005.3
2017-08-05T09:42:06.979Z,1005.3
2017-08-05T09:43:09.780Z,1005.3
2017-08-05T09:44:12.248Z,1005.2
2017-08-05T09:45:14.709Z,1005.2
2017-08-05T09:46:17.144Z,1005.2
2017-08-05T09:47:19.619Z,1005.3
2017-08-05T09:48:22.067Z,1005.3
2017-08-05T09:49:25.198Z,1005.2
2017-08-05T09:50:28.355Z,1005.2
2017-08-05T09:51:30.803Z,1005.2
2017-08-05T09:52:33.589Z,1005.2
2017-08-05T09:53:36.057Z,1005.3
2017-08-05T09:54:38.515Z,1005.3
2017-08-05T09:55:40.979Z,1005.3
2017-08-05T09:56:43.789Z,1005.3
2017-08-05T09:57:46.239Z,1005.3
2017-08-05T09:58:49.037Z,1005.4
2017-08-05T09:59:51.491Z,1005.3
2017-08-05T10:00:53.967Z,1005.3
2017-08-05T10:01:56.781Z,1005.3
2017-08-05T10:02:59.237Z,1005.3
2017-08-05T10:04:02.039Z,1005.3
2017-08-05T10:05:04.832Z,1005.4
2017-08-05T10:06:07.986Z,1005.4
2017-08-05T10:07:10.442Z,1005.4
2017-08-05T10:08:12.909Z,1005.4
2017-08-05T10:09:15.368Z,1005.4
2017-08-05T10:10:17.829Z,1005.4
2017-08-05T10:11:20.278Z,1005.4
2017-08-05T10:12:23.087Z,1005.4
2017-08-05T10:13:25.546Z,1005.4
2017-08-05T10:14:28.351Z,1005.4
2017-08-05T10:15:30.807Z,1005.4
2017-08-05T10:16:33.267Z,1005.4
2017-08-05T10:17:35.719Z,1005.4
2017-08-05T10:18:38.517Z,1005.4
2017-08-05T10:19:41.667Z,1005.4
2017-08-05T10:20:45.149Z,1005.3
2017-08-05T10:21:47.605Z,1005.3
2017-08-05T10:22:50.062Z,1005.3
2017-08-05T10:23:52.517Z,1005.3
2017-08-05T10:24:54.985Z,1005.3
2017-08-05T10:25:57.461Z,1005.2
2017-08-05T10:26:59.909Z,1005.2
2017-08-05T10:28:02.709Z,1005.2
2017-08-05T10:29:05.523Z,1005.2
2017-08-05T10:30:09.018Z,1005.2
2017-08-05T10:31:11.468Z,1005.2
2017-08-05T10:32:14.270Z,1005.2
2017-08-05T10:33:17.065Z,1005.2
2017-08-05T10:34:19.546Z,1005.2
2017-08-05T10:35:22.022Z,1005.2
2017-08-05T10:36:25.173Z,1005.3
2017-08-05T10:37:27.620Z,1005.2
2017-08-05T10:38:30.094Z,1005.3
2017-08-05T10:39:32.552Z,1005.3
2017-08-05T10:40:35.001Z,1005.4
2017-08-05T10:41:37.806Z,1005.4
2017-08-05T10:42:40.617Z,1005.3
2017-08-05T10:43:43.083Z,1005.4
2017-08-05T10:44:45.878Z,1005.4
2017-08-05T10:45:48.322Z,1005.4
2017-08-05T10:46:51.133Z,1005.3
2017-08-05T10:47:53.590Z,1005.3
2017-08-05T10:48:56.393Z,1005.3
2017-08-05T10:49:59.197Z,1005.4
2017-08-05T10:51:02.012Z,1005.4
2017-08-05T10:52:05.139Z,1005.4
2017-08-05T10:53:08.289Z,1005.4
2017-08-05T10:54:11.083Z,1005.4
2017-08-05T10:55:13.547Z,1005.3
2017-08-05T10:56:16.035Z,1005.3
2017-08-05T10:57:18.491Z,1005.4
2017-08-05T10:58:21.642Z,1005.5
2017-08-05T10:59:24.444Z,1005.5
2017-08-05T11:00:26.902Z,1005.5
2017-08-05T11:01:29.354Z,1005.4
2017-08-05T11:02:31.831Z,1005.4
2017-08-05T11:03:34.277Z,1005.4
2017-08-05T11:04:37.086Z,1005.4
2017-08-05T11:05:40.247Z,1005.4
2017-08-05T11:06:43.057Z,1005.4
2017-08-05T11:07:45.870Z,1005.4
2017-08-05T11:08:48.684Z,1005.4
2017-08-05T11:09:51.148Z,1005.4
2017-08-05T11:10:53.640Z,1005.3
2017-08-05T11:12:47.750Z,1005.3
2017-08-05T11:13:50.608Z,1005.3
2017-08-05T11:14:53.133Z,1005.3
2017-08-05T11:15:55.696Z,1005.3
2017-08-05T11:16:58.212Z,1005.3
2017-08-05T11:18:01.082Z,1005.2
2017-08-05T11:19:04.294Z,1005.3
2017-08-05T11:20:07.494Z,1005.3
2017-08-05T11:21:10.040Z,1005.2
2017-08-05T11:22:12.581Z,1005.3
2017-08-05T11:23:15.141Z,1005.3
2017-08-05T11:24:17.680Z,1005.3
2017-08-05T11:25:20.265Z,1005.3
2017-08-05T11:26:23.488Z,1005.3
2017-08-05T11:27:26.025Z,1005.3
2017-08-05T11:28:28.535Z,1005.2
2017-08-05T11:29:31.400Z,1005.3
2017-08-05T11:30:34.257Z,1005.3
2017-08-05T11:31:36.802Z,1005.3
2017-08-05T11:32:39.361Z,1005.3
2017-08-05T11:33:41.888Z,1005.2
2017-08-05T11:34:44.732Z,1005.2
2017-08-05T11:35:47.910Z,1005.2
2017-08-05T11:36:50.412Z,1005.2
2017-08-05T11:37:52.917Z,1005.3
2017-08-05T11:38:55.403Z,1005.2
2017-08-05T11:39:57.921Z,1005.3
2017-08-05T11:41:00.412Z,1005.3
2017-08-05T11:42:03.275Z,1005.3
2017-08-05T11:43:05.771Z,1005.3
2017-08-05T11:44:08.260Z,1005.3
2017-08-05T11:45:11.454Z,1005.3
2017-08-05T11:46:13.964Z,1005.3
2017-08-05T11:47:16.489Z,1005.2
2017-08-05T11:48:18.990Z,1005.3
2017-08-05T11:49:21.832Z,1005.3
2017-08-05T11:50:24.331Z,1005.3
2017-08-05T11:51:26.863Z,1005.2
2017-08-05T11:52:29.387Z,1005.2
2017-08-05T11:53:31.874Z,1005.2
2017-08-05T11:54:34.390Z,1005.2
2017-08-05T11:55:37.962Z,1005.1
2017-08-05T11:56:43.160Z,1005.2
2017-08-05T11:57:45.990Z,1005.2
2017-08-05T11:58:48.851Z,1005.2
2017-08-05T11:59:51.355Z,1005.2
2017-08-05T12:00:53.911Z,1005.2
2017-08-05T12:01:56.413Z,1005.2
2017-08-05T12:02:58.936Z,1005.2
2017-08-05T12:04:01.778Z,1005.3
2017-08-05T12:05:05.328Z,1005.3
2017-08-05T12:06:07.832Z,1005.4
2017-08-05T12:07:10.679Z,1005.4
2017-08-05T12:08:13.213Z,1005.3
2017-08-05T12:09:15.730Z,1005.4
2017-08-05T12:10:18.231Z,1005.3
2017-08-05T12:11:20.751Z,1005.3
2017-08-05T12:12:23.248Z,1005.3
2017-08-05T12:13:25.768Z,1005.3
2017-08-05T12:14:28.264Z,1005.3
2017-08-05T12:15:30.766Z,1005.3
2017-08-05T12:16:33.263Z,1005.3
2017-08-05T12:17:35.762Z,1005.3
2017-08-05T12:18:38.933Z,1005.3
2017-08-05T12:19:41.358Z,1005.3
2017-08-05T12:20:43.782Z,1005.3
2017-08-05T12:21:46.231Z,1005.3
2017-08-05T12:22:48.667Z,1005.2
2017-08-05T12:23:51.091Z,1005.3
2017-08-05T12:24:53.518Z,1005.3
2017-08-05T12:25:56.649Z,1005.3
2017-08-05T12:26:59.084Z,1005.3
2017-08-05T12:28:01.848Z,1005.3
2017-08-05T12:29:04.297Z,1005.3
2017-08-05T12:30:06.721Z,1005.4
2017-08-05T12:31:09.497Z,1005.3
2017-08-05T12:32:12.275Z,1005.4
2017-08-05T12:33:14.702Z,1005.4
2017-08-05T12:34:17.161Z,1005.4
2017-08-05T12:35:19.612Z,1005.4
2017-08-05T12:36:22.035Z,1005.3
2017-08-05T12:37:24.815Z,1005.3
2017-08-05T12:38:27.236Z,1005.3
2017-08-05T12:39:29.674Z,1005.3
2017-08-05T12:40:32.118Z,1005.2
2017-08-05T12:41:34.861Z,1005.2
2017-08-05T12:42:37.284Z,1005.2
2017-08-05T12:43:40.412Z,1005.1
2017-08-05T12:44:43.203Z,1005.1
2017-08-05T12:45:45.984Z,1005.2
2017-08-05T12:46:48.433Z,1005.1
2017-08-05T12:47:51.207Z,1005.2
2017-08-05T12:48:53.984Z,1005.2
2017-08-05T12:49:56.417Z,1005.2
2017-08-05T12:50:58.851Z,1005.2
2017-08-05T12:52:01.609Z,1005.2
2017-08-05T12:53:04.050Z,1005.3
2017-08-05T12:54:06.479Z,1005.2
2017-08-05T12:55:09.237Z,1005.2
2017-08-05T12:56:11.669Z,1005.2
2017-08-05T12:57:14.459Z,1005.2
2017-08-05T12:58:16.882Z,1005.2
2017-08-05T12:59:19.660Z,1005.1
2017-08-05T13:00:22.113Z,1005.1
2017-08-05T13:01:24.875Z,1005.1
2017-08-05T13:02:27.309Z,1005.1
2017-08-05T13:03:29.742Z,1005.1
2017-08-05T13:04:32.516Z,1005.1